sensor_id;sensor_type;location;lat;lon;timestamp;temperature;humidity
50067;DHT22;35952;52.524;13.340;2024-02-14T00:00:34;4.30;99.90
50067;DHT22;35952;52.524;13.340;2024-02-14T00:03:00;4.40;99.90
50067;DHT22;35952;52.524;13.340;2024-02-14T00:05:25;4.70;99.90
50067;DHT22;35952;52.524;13.340;2024-02-14T00:07:51;4.60;99.90
50067;DHT22;35952;52.524;13.340;2024-02-14T00:10:17;4.40;99.90
50067;DHT22;35952;52.524;13.340;2024-02-14T00:12:42;4.40;99.90
50067;DHT22;35952;52.524;13.340;2024-02-14T00:15:08;4.30;99.90
50067;DHT22;35952;52.524;13.340;2024-02-14T00:17:35;4.30;99.90
50067;DHT22;35952;52.524;13.340;2024-02-14T00:20:04;4.20;99.90
50067;DHT22;35952;52.524;13.340;2024-02-14T00:22:30;4.20;99.90
50067;DHT22;35952;52.524;13.340;2024-02-14T00:24:56;4.20;99.90
50067;DHT22;35952;52.524;13.340;2024-02-14T00:27:21;4.10;99.90
50067;DHT22;35952;52.524;13.340;2024-02-14T00:29:47;4.10;99.90
50067;DHT22;35952;52.524;13.340;2024-02-14T00:32:13;4.10;99.90
50067;DHT22;35952;52.524;13.340;2024-02-14T00:34:39;4.10;99.90
50067;DHT22;35952;52.524;13.340;2024-02-14T00:37:04;4.20;99.90
50067;DHT22;35952;52.524;13.340;2024-02-14T00:39:30;4.20;99.90
50067;DHT22;35952;52.524;13.340;2024-02-14T00:41:55;4.20;99.90
50067;DHT22;35952;52.524;13.340;2024-02-14T00:44:21;4.40;99.90
50067;DHT22;35952;52.524;13.340;2024-02-14T00:46:47;4.30;99.90
50067;DHT22;35952;52.524;13.340;2024-02-14T00:49:13;4.30;99.90
50067;DHT22;35952;52.524;13.340;2024-02-14T00:51:39;4.20;99.90
50067;DHT22;35952;52.524;13.340;2024-02-14T00:54:05;4.20;99.90
50067;DHT22;35952;52.524;13.340;2024-02-14T00:56:31;4.20;99.90
50067;DHT22;35952;52.524;13.340;2024-02-14T00:58:57;4.10;99.90
50067;DHT22;35952;52.524;13.340;2024-02-14T01:01:22;4.10;99.90
50067;DHT22;35952;52.524;13.340;2024-02-14T01:03:48;4.20;99.90
50067;DHT22;35952;52.524;13.340;2024-02-14T01:06:14;4.20;99.90
50067;DHT22;35952;52.524;13.340;2024-02-14T01:08:41;4.20;99.90
50067;DHT22;35952;52.524;13.340;2024-02-14T01:11:07;4.20;99.90
50067;DHT22;35952;52.524;13.340;2024-02-14T01:13:33;4.20;99.90
50067;DHT22;35952;52.524;13.340;2024-02-14T01:15:58;4.20;99.90
50067;DHT22;35952;52.524;13.340;2024-02-14T01:18:24;4.20;99.90
50067;DHT22;35952;52.524;13.340;2024-02-14T01:20:50;4.20;99.90
50067;DHT22;35952;52.524;13.340;2024-02-14T01:23:16;4.10;99.90
50067;DHT22;35952;52.524;13.340;2024-02-14T01:25:41;4.20;99.90
50067;DHT22;35952;52.524;13.340;2024-02-14T01:28:08;4.10;99.90
50067;DHT22;35952;52.524;13.340;2024-02-14T01:30:34;4.10;99.90
50067;DHT22;35952;52.524;13.340;2024-02-14T01:33:01;4.10;99.90
50067;DHT22;35952;52.524;13.340;2024-02-14T01:35:32;4.10;99.90
50067;DHT22;35952;52.524;13.340;2024-02-14T01:37:58;4.00;99.90
50067;DHT22;35952;52.524;13.340;2024-02-14T01:40:23;4.00;99.90
50067;DHT22;35952;52.524;13.340;2024-02-14T01:42:49;4.10;99.90
50067;DHT22;35952;52.524;13.340;2024-02-14T01:45:15;4.00;99.90
50067;DHT22;35952;52.524;13.340;2024-02-14T01:47:41;4.10;99.90
50067;DHT22;35952;52.524;13.340;2024-02-14T01:50:07;4.10;99.90
50067;DHT22;35952;52.524;13.340;2024-02-14T01:52:39;4.10;99.90
50067;DHT22;35952;52.524;13.340;2024-02-14T01:55:06;4.10;99.90
50067;DHT22;35952;52.524;13.340;2024-02-14T01:57:33;4.10;99.90
50067;DHT22;35952;52.524;13.340;2024-02-14T02:00:00;4.10;99.90
50067;DHT22;35952;52.524;13.340;2024-02-14T02:02:29;4.00;99.90
50067;DHT22;35952;52.524;13.340;2024-02-14T02:04:55;4.00;99.90
50067;DHT22;35952;52.524;13.340;2024-02-14T02:07:21;4.00;99.90
50067;DHT22;35952;52.524;13.340;2024-02-14T02:09:46;4.00;99.90
50067;DHT22;35952;52.524;13.340;2024-02-14T02:12:12;4.00;99.90
50067;DHT22;35952;52.524;13.340;2024-02-14T02:14:37;4.00;99.90
50067;DHT22;35952;52.524;13.340;2024-02-14T02:17:04;3.90;99.90
50067;DHT22;35952;52.524;13.340;2024-02-14T02:19:33;3.90;99.90
50067;DHT22;35952;52.524;13.340;2024-02-14T02:22:00;4.00;99.90
50067;DHT22;35952;52.524;13.340;2024-02-14T02:24:26;4.00;99.90
50067;DHT22;35952;52.524;13.340;2024-02-14T02:26:51;3.90;99.90
50067;DHT22;35952;52.524;13.340;2024-02-14T02:29:17;3.90;99.90
50067;DHT22;35952;52.524;13.340;2024-02-14T02:31:44;3.90;99.90
50067;DHT22;35952;52.524;13.340;2024-02-14T02:34:10;3.90;99.90
50067;DHT22;35952;52.524;13.340;2024-02-14T02:36:36;3.90;99.90
50067;DHT22;35952;52.524;13.340;2024-02-14T02:39:03;3.90;99.90
50067;DHT22;35952;52.524;13.340;2024-02-14T02:41:30;3.80;99.90
50067;DHT22;35952;52.524;13.340;2024-02-14T02:43:59;3.90;99.90
50067;DHT22;35952;52.524;13.340;2024-02-14T02:46:27;3.80;99.90
50067;DHT22;35952;52.524;13.340;2024-02-14T02:48:52;3.90;99.90
50067;DHT22;35952;52.524;13.340;2024-02-14T02:51:20;3.80;99.90
50067;DHT22;35952;52.524;13.340;2024-02-14T02:53:46;3.90;99.90
50067;DHT22;35952;52.524;13.340;2024-02-14T02:56:12;3.80;99.90
50067;DHT22;35952;52.524;13.340;2024-02-14T02:58:38;3.90;99.90
50067;DHT22;35952;52.524;13.340;2024-02-14T03:01:08;3.80;99.90
50067;DHT22;35952;52.524;13.340;2024-02-14T03:03:34;3.70;99.90
50067;DHT22;35952;52.524;13.340;2024-02-14T03:06:03;3.80;99.90
50067;DHT22;35952;52.524;13.340;2024-02-14T03:08:29;3.80;99.90
50067;DHT22;35952;52.524;13.340;2024-02-14T03:10:56;3.70;99.90
50067;DHT22;35952;52.524;13.340;2024-02-14T03:13:24;3.80;99.90
50067;DHT22;35952;52.524;13.340;2024-02-14T03:15:50;3.90;99.90
50067;DHT22;35952;52.524;13.340;2024-02-14T03:18:16;3.80;99.90
50067;DHT22;35952;52.524;13.340;2024-02-14T03:20:41;3.70;99.90
50067;DHT22;35952;52.524;13.340;2024-02-14T03:23:07;3.70;99.90
50067;DHT22;35952;52.524;13.340;2024-02-14T03:25:32;3.70;99.90
50067;DHT22;35952;52.524;13.340;2024-02-14T03:27:58;3.60;99.90
50067;DHT22;35952;52.524;13.340;2024-02-14T03:30:24;3.70;99.90
50067;DHT22;35952;52.524;13.340;2024-02-14T03:32:50;3.80;99.90
50067;DHT22;35952;52.524;13.340;2024-02-14T03:35:16;3.70;99.90
50067;DHT22;35952;52.524;13.340;2024-02-14T03:37:43;3.80;99.90
50067;DHT22;35952;52.524;13.340;2024-02-14T03:40:09;3.80;99.90
50067;DHT22;35952;52.524;13.340;2024-02-14T03:42:35;3.80;99.90
50067;DHT22;35952;52.524;13.340;2024-02-14T03:45:01;3.80;99.90
50067;DHT22;35952;52.524;13.340;2024-02-14T03:47:31;3.80;99.90
50067;DHT22;35952;52.524;13.340;2024-02-14T03:49:58;3.80;99.90
50067;DHT22;35952;52.524;13.340;2024-02-14T03:52:26;3.80;99.90
50067;DHT22;35952;52.524;13.340;2024-02-14T03:54:52;3.80;99.90
50067;DHT22;35952;52.524;13.340;2024-02-14T03:57:18;3.80;99.90
50067;DHT22;35952;52.524;13.340;2024-02-14T03:59:46;3.80;99.90
50067;DHT22;35952;52.524;13.340;2024-02-14T04:02:12;3.80;99.90
50067;DHT22;35952;52.524;13.340;2024-02-14T04:04:42;3.90;99.90
50067;DHT22;35952;52.524;13.340;2024-02-14T04:07:08;3.80;99.90
50067;DHT22;35952;52.524;13.340;2024-02-14T04:09:34;3.80;99.90
50067;DHT22;35952;52.524;13.340;2024-02-14T04:12:00;3.80;99.90
50067;DHT22;35952;52.524;13.340;2024-02-14T04:14:25;3.80;99.90
50067;DHT22;35952;52.524;13.340;2024-02-14T04:16:51;3.90;99.90
50067;DHT22;35952;52.524;13.340;2024-02-14T04:19:16;3.80;99.90
50067;DHT22;35952;52.524;13.340;2024-02-14T04:21:43;3.80;99.90
50067;DHT22;35952;52.524;13.340;2024-02-14T04:24:08;3.80;99.90
50067;DHT22;35952;52.524;13.340;2024-02-14T04:26:35;3.90;99.90
50067;DHT22;35952;52.524;13.340;2024-02-14T04:29:01;4.00;99.90
50067;DHT22;35952;52.524;13.340;2024-02-14T04:31:27;3.90;99.90
50067;DHT22;35952;52.524;13.340;2024-02-14T04:33:55;3.90;99.90
50067;DHT22;35952;52.524;13.340;2024-02-14T04:36:21;4.00;99.90
50067;DHT22;35952;52.524;13.340;2024-02-14T04:38:49;4.00;99.90
50067;DHT22;35952;52.524;13.340;2024-02-14T04:41:15;4.10;99.90
50067;DHT22;35952;52.524;13.340;2024-02-14T04:43:41;4.10;99.90
50067;DHT22;35952;52.524;13.340;2024-02-14T04:46:07;4.00;99.90
50067;DHT22;35952;52.524;13.340;2024-02-14T04:48:34;4.00;99.90
50067;DHT22;35952;52.524;13.340;2024-02-14T04:51:01;4.00;99.90
50067;DHT22;35952;52.524;13.340;2024-02-14T04:53:27;4.00;99.90
50067;DHT22;35952;52.524;13.340;2024-02-14T04:55:53;4.00;99.90
50067;DHT22;35952;52.524;13.340;2024-02-14T04:58:19;4.00;99.90
50067;DHT22;35952;52.524;13.340;2024-02-14T05:00:45;4.20;99.90
50067;DHT22;35952;52.524;13.340;2024-02-14T05:03:10;4.10;99.90
50067;DHT22;35952;52.524;13.340;2024-02-14T05:05:36;4.10;99.90
50067;DHT22;35952;52.524;13.340;2024-02-14T05:08:01;4.10;99.90
50067;DHT22;35952;52.524;13.340;2024-02-14T05:10:30;4.10;99.90
50067;DHT22;35952;52.524;13.340;2024-02-14T05:12:56;4.10;99.90
50067;DHT22;35952;52.524;13.340;2024-02-14T05:15:22;4.10;99.90
50067;DHT22;35952;52.524;13.340;2024-02-14T05:17:47;4.10;99.90
50067;DHT22;35952;52.524;13.340;2024-02-14T05:20:15;4.20;99.90
50067;DHT22;35952;52.524;13.340;2024-02-14T05:22:41;4.30;99.90
50067;DHT22;35952;52.524;13.340;2024-02-14T05:25:07;4.20;99.90
50067;DHT22;35952;52.524;13.340;2024-02-14T05:27:36;4.20;99.90
50067;DHT22;35952;52.524;13.340;2024-02-14T05:30:03;4.30;99.90
50067;DHT22;35952;52.524;13.340;2024-02-14T05:32:31;4.30;99.90
50067;DHT22;35952;52.524;13.340;2024-02-14T05:35:00;4.40;99.90
50067;DHT22;35952;52.524;13.340;2024-02-14T05:37:26;4.40;99.90
50067;DHT22;35952;52.524;13.340;2024-02-14T05:39:57;4.40;99.90
50067;DHT22;35952;52.524;13.340;2024-02-14T05:42:22;4.40;99.90
50067;DHT22;35952;52.524;13.340;2024-02-14T05:44:50;4.40;99.90
50067;DHT22;35952;52.524;13.340;2024-02-14T05:47:17;4.30;99.90
50067;DHT22;35952;52.524;13.340;2024-02-14T05:49:44;4.40;99.90
50067;DHT22;35952;52.524;13.340;2024-02-14T05:52:09;4.40;99.90
50067;DHT22;35952;52.524;13.340;2024-02-14T05:54:35;4.50;99.90
50067;DHT22;35952;52.524;13.340;2024-02-14T05:57:01;4.40;99.90
50067;DHT22;35952;52.524;13.340;2024-02-14T05:59:27;4.40;99.90
50067;DHT22;35952;52.524;13.340;2024-02-14T06:01:53;4.40;99.90
50067;DHT22;35952;52.524;13.340;2024-02-14T06:04:19;4.50;99.90
50067;DHT22;35952;52.524;13.340;2024-02-14T06:06:44;4.40;99.90
50067;DHT22;35952;52.524;13.340;2024-02-14T06:09:10;4.40;99.90
50067;DHT22;35952;52.524;13.340;2024-02-14T06:11:37;4.40;99.90
50067;DHT22;35952;52.524;13.340;2024-02-14T06:14:08;4.40;99.90
50067;DHT22;35952;52.524;13.340;2024-02-14T06:16:34;4.30;99.90
50067;DHT22;35952;52.524;13.340;2024-02-14T06:19:00;4.30;99.90
50067;DHT22;35952;52.524;13.340;2024-02-14T06:21:28;4.30;99.90
50067;DHT22;35952;52.524;13.340;2024-02-14T06:23:53;4.30;99.90
50067;DHT22;35952;52.524;13.340;2024-02-14T06:26:19;4.20;99.90
50067;DHT22;35952;52.524;13.340;2024-02-14T06:28:45;4.20;99.90
50067;DHT22;35952;52.524;13.340;2024-02-14T06:31:12;4.20;99.90
50067;DHT22;35952;52.524;13.340;2024-02-14T06:33:37;4.30;99.90
50067;DHT22;35952;52.524;13.340;2024-02-14T06:36:03;4.20;99.90
50067;DHT22;35952;52.524;13.340;2024-02-14T06:38:30;4.20;99.90
50067;DHT22;35952;52.524;13.340;2024-02-14T06:40:56;4.20;99.90
50067;DHT22;35952;52.524;13.340;2024-02-14T06:43:22;4.30;99.90
50067;DHT22;35952;52.524;13.340;2024-02-14T06:45:47;4.30;99.90
50067;DHT22;35952;52.524;13.340;2024-02-14T06:48:13;4.40;99.90
50067;DHT22;35952;52.524;13.340;2024-02-14T06:50:39;4.30;99.90
50067;DHT22;35952;52.524;13.340;2024-02-14T06:53:05;4.50;99.90
50067;DHT22;35952;52.524;13.340;2024-02-14T06:55:31;4.50;99.90
50067;DHT22;35952;52.524;13.340;2024-02-14T06:58:01;4.50;99.90
50067;DHT22;35952;52.524;13.340;2024-02-14T07:00:33;4.50;99.90
50067;DHT22;35952;52.524;13.340;2024-02-14T07:03:02;4.50;99.90
50067;DHT22;35952;52.524;13.340;2024-02-14T07:05:28;4.60;99.90
50067;DHT22;35952;52.524;13.340;2024-02-14T07:07:54;4.60;99.90
50067;DHT22;35952;52.524;13.340;2024-02-14T07:10:20;4.70;99.90
50067;DHT22;35952;52.524;13.340;2024-02-14T07:12:46;4.60;99.90
50067;DHT22;35952;52.524;13.340;2024-02-14T07:15:11;4.70;99.90
50067;DHT22;35952;52.524;13.340;2024-02-14T07:17:37;4.90;99.90
50067;DHT22;35952;52.524;13.340;2024-02-14T07:20:04;4.90;99.90
50067;DHT22;35952;52.524;13.340;2024-02-14T07:22:30;4.90;99.90
50067;DHT22;35952;52.524;13.340;2024-02-14T07:24:59;4.90;99.90
50067;DHT22;35952;52.524;13.340;2024-02-14T07:27:25;5.10;99.90
50067;DHT22;35952;52.524;13.340;2024-02-14T07:29:50;5.10;99.90
50067;DHT22;35952;52.524;13.340;2024-02-14T07:32:16;5.30;99.90
50067;DHT22;35952;52.524;13.340;2024-02-14T07:34:42;5.20;99.90
50067;DHT22;35952;52.524;13.340;2024-02-14T07:37:07;5.30;99.90
50067;DHT22;35952;52.524;13.340;2024-02-14T07:39:33;5.40;99.90
50067;DHT22;35952;52.524;13.340;2024-02-14T07:42:00;5.40;99.90
50067;DHT22;35952;52.524;13.340;2024-02-14T07:44:26;5.50;99.90
50067;DHT22;35952;52.524;13.340;2024-02-14T07:46:51;5.60;99.90
50067;DHT22;35952;52.524;13.340;2024-02-14T07:49:18;5.70;99.90
50067;DHT22;35952;52.524;13.340;2024-02-14T07:51:44;5.50;99.90
50067;DHT22;35952;52.524;13.340;2024-02-14T07:54:13;5.40;99.90
50067;DHT22;35952;52.524;13.340;2024-02-14T07:56:39;5.40;99.90
50067;DHT22;35952;52.524;13.340;2024-02-14T07:59:04;5.40;99.90
50067;DHT22;35952;52.524;13.340;2024-02-14T08:01:31;5.50;99.90
50067;DHT22;35952;52.524;13.340;2024-02-14T08:03:57;5.50;99.90
50067;DHT22;35952;52.524;13.340;2024-02-14T08:06:23;5.40;99.90
50067;DHT22;35952;52.524;13.340;2024-02-14T08:08:49;5.60;99.90
50067;DHT22;35952;52.524;13.340;2024-02-14T08:11:19;5.80;99.90
50067;DHT22;35952;52.524;13.340;2024-02-14T08:13:45;5.70;99.90
50067;DHT22;35952;52.524;13.340;2024-02-14T08:16:10;5.70;99.90
50067;DHT22;35952;52.524;13.340;2024-02-14T08:18:36;5.70;99.90
50067;DHT22;35952;52.524;13.340;2024-02-14T08:21:02;5.80;99.90
50067;DHT22;35952;52.524;13.340;2024-02-14T08:23:29;5.80;99.90
50067;DHT22;35952;52.524;13.340;2024-02-14T08:25:55;5.80;99.90
50067;DHT22;35952;52.524;13.340;2024-02-14T08:28:20;5.90;99.90
50067;DHT22;35952;52.524;13.340;2024-02-14T08:30:46;5.80;99.90
50067;DHT22;35952;52.524;13.340;2024-02-14T08:33:12;5.80;99.90
50067;DHT22;35952;52.524;13.340;2024-02-14T08:35:38;5.80;99.90
50067;DHT22;35952;52.524;13.340;2024-02-14T08:38:04;5.90;99.90
50067;DHT22;35952;52.524;13.340;2024-02-14T08:40:29;6.00;99.90
50067;DHT22;35952;52.524;13.340;2024-02-14T08:42:55;6.10;99.90
50067;DHT22;35952;52.524;13.340;2024-02-14T08:45:20;6.10;99.90
50067;DHT22;35952;52.524;13.340;2024-02-14T08:47:46;6.20;99.90
50067;DHT22;35952;52.524;13.340;2024-02-14T08:50:11;6.40;99.90
50067;DHT22;35952;52.524;13.340;2024-02-14T08:52:37;6.50;99.90
50067;DHT22;35952;52.524;13.340;2024-02-14T08:55:06;6.40;99.90
50067;DHT22;35952;52.524;13.340;2024-02-14T08:57:36;6.40;99.90
50067;DHT22;35952;52.524;13.340;2024-02-14T09:00:01;6.70;99.90
50067;DHT22;35952;52.524;13.340;2024-02-14T09:02:29;6.80;99.90
50067;DHT22;35952;52.524;13.340;2024-02-14T09:04:55;6.70;99.90
50067;DHT22;35952;52.524;13.340;2024-02-14T09:07:20;6.70;99.90
50067;DHT22;35952;52.524;13.340;2024-02-14T09:09:45;6.60;99.90
50067;DHT22;35952;52.524;13.340;2024-02-14T09:12:11;6.60;99.90
50067;DHT22;35952;52.524;13.340;2024-02-14T09:14:37;6.70;99.90
50067;DHT22;35952;52.524;13.340;2024-02-14T09:17:02;6.70;99.90
50067;DHT22;35952;52.524;13.340;2024-02-14T09:19:28;6.90;99.90
50067;DHT22;35952;52.524;13.340;2024-02-14T09:21:54;6.90;99.90
50067;DHT22;35952;52.524;13.340;2024-02-14T09:24:19;6.90;99.90
50067;DHT22;35952;52.524;13.340;2024-02-14T09:26:45;6.90;99.90
50067;DHT22;35952;52.524;13.340;2024-02-14T09:29:11;6.80;99.90
50067;DHT22;35952;52.524;13.340;2024-02-14T09:31:36;6.70;99.90
50067;DHT22;35952;52.524;13.340;2024-02-14T09:34:02;6.90;99.90
50067;DHT22;35952;52.524;13.340;2024-02-14T09:36:28;6.90;99.90
50067;DHT22;35952;52.524;13.340;2024-02-14T09:38:54;7.10;99.90
50067;DHT22;35952;52.524;13.340;2024-02-14T09:41:37;7.20;99.90
50067;DHT22;35952;52.524;13.340;2024-02-14T09:44:03;7.20;99.90
50067;DHT22;35952;52.524;13.340;2024-02-14T09:46:29;7.00;99.90
50067;DHT22;35952;52.524;13.340;2024-02-14T09:48:58;7.00;99.90
50067;DHT22;35952;52.524;13.340;2024-02-14T09:51:28;7.00;99.90
50067;DHT22;35952;52.524;13.340;2024-02-14T09:53:54;7.00;99.90
50067;DHT22;35952;52.524;13.340;2024-02-14T09:56:21;6.70;99.90
50067;DHT22;35952;52.524;13.340;2024-02-14T09:58:49;6.70;99.90
50067;DHT22;35952;52.524;13.340;2024-02-14T10:01:21;7.00;99.90
50067;DHT22;35952;52.524;13.340;2024-02-14T10:03:49;6.70;99.90
50067;DHT22;35952;52.524;13.340;2024-02-14T10:06:15;6.80;99.90
50067;DHT22;35952;52.524;13.340;2024-02-14T10:08:41;6.90;99.90
50067;DHT22;35952;52.524;13.340;2024-02-14T10:11:08;6.90;99.90
50067;DHT22;35952;52.524;13.340;2024-02-14T10:13:33;6.50;99.90
50067;DHT22;35952;52.524;13.340;2024-02-14T10:16:00;6.50;99.90
50067;DHT22;35952;52.524;13.340;2024-02-14T10:18:26;6.80;99.90
50067;DHT22;35952;52.524;13.340;2024-02-14T10:20:56;6.80;99.90
50067;DHT22;35952;52.524;13.340;2024-02-14T10:23:21;6.90;99.90
50067;DHT22;35952;52.524;13.340;2024-02-14T10:25:50;6.90;99.90
50067;DHT22;35952;52.524;13.340;2024-02-14T10:28:16;6.90;99.90
50067;DHT22;35952;52.524;13.340;2024-02-14T10:30:45;6.90;99.90
50067;DHT22;35952;52.524;13.340;2024-02-14T10:33:11;6.80;99.90
50067;DHT22;35952;52.524;13.340;2024-02-14T10:35:38;6.60;99.90
50067;DHT22;35952;52.524;13.340;2024-02-14T10:38:06;7.00;99.90
50067;DHT22;35952;52.524;13.340;2024-02-14T10:40:36;6.90;99.90
50067;DHT22;35952;52.524;13.340;2024-02-14T10:43:05;7.10;99.90
50067;DHT22;35952;52.524;13.340;2024-02-14T10:45:30;6.90;99.90
50067;DHT22;35952;52.524;13.340;2024-02-14T10:47:57;6.80;99.90
50067;DHT22;35952;52.524;13.340;2024-02-14T10:50:28;6.80;99.90
50067;DHT22;35952;52.524;13.340;2024-02-14T10:53:00;6.70;99.90
50067;DHT22;35952;52.524;13.340;2024-02-14T10:55:29;7.00;99.90
50067;DHT22;35952;52.524;13.340;2024-02-14T10:57:55;7.20;99.90
50067;DHT22;35952;52.524;13.340;2024-02-14T11:00:22;7.30;99.90
50067;DHT22;35952;52.524;13.340;2024-02-14T11:02:49;7.70;99.90
50067;DHT22;35952;52.524;13.340;2024-02-14T11:05:17;7.50;99.90
50067;DHT22;35952;52.524;13.340;2024-02-14T11:07:45;7.20;99.90
50067;DHT22;35952;52.524;13.340;2024-02-14T11:10:14;7.60;99.90
50067;DHT22;35952;52.524;13.340;2024-02-14T11:12:41;7.80;99.90
50067;DHT22;35952;52.524;13.340;2024-02-14T11:15:34;7.60;99.90
50067;DHT22;35952;52.524;13.340;2024-02-14T11:18:06;7.40;99.90
50067;DHT22;35952;52.524;13.340;2024-02-14T11:20:35;7.60;99.90
50067;DHT22;35952;52.524;13.340;2024-02-14T11:23:06;7.50;99.90
50067;DHT22;35952;52.524;13.340;2024-02-14T11:25:35;7.60;99.90
50067;DHT22;35952;52.524;13.340;2024-02-14T11:28:11;7.50;99.90
50067;DHT22;35952;52.524;13.340;2024-02-14T11:30:40;7.70;99.90
50067;DHT22;35952;52.524;13.340;2024-02-14T11:33:16;7.60;99.90
50067;DHT22;35952;52.524;13.340;2024-02-14T11:35:45;7.70;99.90
50067;DHT22;35952;52.524;13.340;2024-02-14T11:38:11;7.70;99.90
50067;DHT22;35952;52.524;13.340;2024-02-14T11:40:37;7.70;99.90
50067;DHT22;35952;52.524;13.340;2024-02-14T11:43:17;7.50;99.90
50067;DHT22;35952;52.524;13.340;2024-02-14T11:45:43;7.60;99.90
50067;DHT22;35952;52.524;13.340;2024-02-14T11:48:14;7.80;99.90
50067;DHT22;35952;52.524;13.340;2024-02-14T11:50:42;7.80;99.90
50067;DHT22;35952;52.524;13.340;2024-02-14T11:53:15;7.90;99.90
50067;DHT22;35952;52.524;13.340;2024-02-14T11:55:45;8.00;99.90
50067;DHT22;35952;52.524;13.340;2024-02-14T11:58:13;8.10;99.90
50067;DHT22;35952;52.524;13.340;2024-02-14T12:00:43;8.00;99.90
50067;DHT22;35952;52.524;13.340;2024-02-14T12:03:23;8.00;99.90
50067;DHT22;35952;52.524;13.340;2024-02-14T12:05:53;7.90;99.90
50067;DHT22;35952;52.524;13.340;2024-02-14T12:08:19;8.00;99.90
50067;DHT22;35952;52.524;13.340;2024-02-14T12:10:46;8.00;99.90
50067;DHT22;35952;52.524;13.340;2024-02-14T12:13:17;8.00;99.90
50067;DHT22;35952;52.524;13.340;2024-02-14T12:15:47;8.20;99.90
50067;DHT22;35952;52.524;13.340;2024-02-14T12:18:14;8.20;99.90
50067;DHT22;35952;52.524;13.340;2024-02-14T12:20:40;8.30;99.90
50067;DHT22;35952;52.524;13.340;2024-02-14T12:23:06;8.20;99.90
50067;DHT22;35952;52.524;13.340;2024-02-14T12:25:32;8.20;99.90
50067;DHT22;35952;52.524;13.340;2024-02-14T12:27:58;8.20;99.90
50067;DHT22;35952;52.524;13.340;2024-02-14T12:30:46;8.30;99.90
50067;DHT22;35952;52.524;13.340;2024-02-14T12:33:14;8.30;99.90
50067;DHT22;35952;52.524;13.340;2024-02-14T12:35:44;8.00;99.90
50067;DHT22;35952;52.524;13.340;2024-02-14T12:38:11;8.30;99.90
50067;DHT22;35952;52.524;13.340;2024-02-14T12:40:38;8.40;99.90
50067;DHT22;35952;52.524;13.340;2024-02-14T12:43:03;8.40;99.90
50067;DHT22;35952;52.524;13.340;2024-02-14T12:45:31;8.60;99.90
50067;DHT22;35952;52.524;13.340;2024-02-14T12:47:56;8.60;99.90
50067;DHT22;35952;52.524;13.340;2024-02-14T12:50:22;8.70;99.90
50067;DHT22;35952;52.524;13.340;2024-02-14T12:52:47;8.60;99.90
50067;DHT22;35952;52.524;13.340;2024-02-14T12:55:14;8.70;99.90
50067;DHT22;35952;52.524;13.340;2024-02-14T12:57:40;8.80;99.90
50067;DHT22;35952;52.524;13.340;2024-02-14T13:00:06;8.70;99.90
50067;DHT22;35952;52.524;13.340;2024-02-14T13:02:34;8.70;99.90
50067;DHT22;35952;52.524;13.340;2024-02-14T13:05:00;8.80;99.90
50067;DHT22;35952;52.524;13.340;2024-02-14T13:07:27;8.70;99.90
50067;DHT22;35952;52.524;13.340;2024-02-14T13:09:53;8.80;99.90
50067;DHT22;35952;52.524;13.340;2024-02-14T13:12:18;8.90;99.90
50067;DHT22;35952;52.524;13.340;2024-02-14T13:14:44;8.90;99.90
50067;DHT22;35952;52.524;13.340;2024-02-14T13:17:09;8.70;99.90
50067;DHT22;35952;52.524;13.340;2024-02-14T13:19:36;8.90;99.90
50067;DHT22;35952;52.524;13.340;2024-02-14T13:22:01;9.00;99.90
50067;DHT22;35952;52.524;13.340;2024-02-14T13:24:27;9.00;99.90
50067;DHT22;35952;52.524;13.340;2024-02-14T13:26:53;9.00;99.90
50067;DHT22;35952;52.524;13.340;2024-02-14T13:29:19;8.80;99.90
50067;DHT22;35952;52.524;13.340;2024-02-14T13:31:45;8.90;99.90
50067;DHT22;35952;52.524;13.340;2024-02-14T13:34:10;8.90;99.90
50067;DHT22;35952;52.524;13.340;2024-02-14T13:36:37;8.80;99.90
50067;DHT22;35952;52.524;13.340;2024-02-14T13:39:02;8.80;99.90
50067;DHT22;35952;52.524;13.340;2024-02-14T13:41:28;8.70;99.90
50067;DHT22;35952;52.524;13.340;2024-02-14T13:43:53;8.80;99.90
50067;DHT22;35952;52.524;13.340;2024-02-14T13:46:19;8.70;99.90
50067;DHT22;35952;52.524;13.340;2024-02-14T13:48:45;8.70;99.90
50067;DHT22;35952;52.524;13.340;2024-02-14T13:51:10;8.80;99.90
50067;DHT22;35952;52.524;13.340;2024-02-14T13:53:36;8.80;99.90
50067;DHT22;35952;52.524;13.340;2024-02-14T13:56:01;8.90;99.90
50067;DHT22;35952;52.524;13.340;2024-02-14T13:58:27;9.00;99.90
50067;DHT22;35952;52.524;13.340;2024-02-14T14:00:53;8.90;99.90
50067;DHT22;35952;52.524;13.340;2024-02-14T14:03:18;9.10;99.90
50067;DHT22;35952;52.524;13.340;2024-02-14T14:05:44;9.20;99.90
50067;DHT22;35952;52.524;13.340;2024-02-14T14:08:09;9.30;99.90
50067;DHT22;35952;52.524;13.340;2024-02-14T14:10:35;9.20;99.90
50067;DHT22;35952;52.524;13.340;2024-02-14T14:13:00;9.20;99.90
50067;DHT22;35952;52.524;13.340;2024-02-14T14:15:26;9.30;99.90
50067;DHT22;35952;52.524;13.340;2024-02-14T14:17:52;9.40;99.90
50067;DHT22;35952;52.524;13.340;2024-02-14T14:20:17;9.30;99.90
50067;DHT22;35952;52.524;13.340;2024-02-14T14:22:44;9.40;99.90
50067;DHT22;35952;52.524;13.340;2024-02-14T14:25:09;9.30;99.90
50067;DHT22;35952;52.524;13.340;2024-02-14T14:27:35;9.30;99.90
50067;DHT22;35952;52.524;13.340;2024-02-14T14:30:00;9.30;99.90
50067;DHT22;35952;52.524;13.340;2024-02-14T14:32:26;9.40;99.90
50067;DHT22;35952;52.524;13.340;2024-02-14T14:34:51;9.30;99.90
50067;DHT22;35952;52.524;13.340;2024-02-14T14:37:17;9.30;99.90
50067;DHT22;35952;52.524;13.340;2024-02-14T14:39:42;9.50;99.90
50067;DHT22;35952;52.524;13.340;2024-02-14T14:42:10;9.50;99.90
50067;DHT22;35952;52.524;13.340;2024-02-14T14:44:35;9.40;99.90
50067;DHT22;35952;52.524;13.340;2024-02-14T14:47:02;9.40;99.90
50067;DHT22;35952;52.524;13.340;2024-02-14T14:49:27;9.50;99.90
50067;DHT22;35952;52.524;13.340;2024-02-14T14:51:53;9.50;99.90
50067;DHT22;35952;52.524;13.340;2024-02-14T14:54:19;9.50;99.90
50067;DHT22;35952;52.524;13.340;2024-02-14T14:56:45;9.50;99.90
50067;DHT22;35952;52.524;13.340;2024-02-14T14:59:11;9.50;99.90
50067;DHT22;35952;52.524;13.340;2024-02-14T15:01:37;9.60;99.90
50067;DHT22;35952;52.524;13.340;2024-02-14T15:04:03;9.70;99.90
50067;DHT22;35952;52.524;13.340;2024-02-14T15:06:29;9.60;99.90
50067;DHT22;35952;52.524;13.340;2024-02-14T15:08:55;9.60;99.90
50067;DHT22;35952;52.524;13.340;2024-02-14T15:11:21;9.80;99.90
50067;DHT22;35952;52.524;13.340;2024-02-14T15:13:47;9.80;99.90
50067;DHT22;35952;52.524;13.340;2024-02-14T15:16:13;9.80;99.90
50067;DHT22;35952;52.524;13.340;2024-02-14T15:18:40;9.80;99.90
50067;DHT22;35952;52.524;13.340;2024-02-14T15:21:09;9.90;99.90
50067;DHT22;35952;52.524;13.340;2024-02-14T15:23:35;10.00;99.90
50067;DHT22;35952;52.524;13.340;2024-02-14T15:26:00;9.80;99.90